PWSweather.com
Personal Weather Stations
Station Observations
IPORTUGA89
BarosaPT

BarosaPT

Lat: 39.754028, Lon: -8.843

Elevation: 98

Station Type: Davis Vp2

High Low Average
Temperature 54.7°F12.6°C 28.9°F-1.7°C 41.9°F5.5°C
Dew Point 41.4°F5.2°C 27.5°F-2.5°C 33.7°F0.9°C
Winds 12.1 mph 19.5 kmh Calm Calm 3.0 mph SSW4.8 kmh SSW
Wind Gusts 21.0 mph33.8 kmh -- 6.0 mph9.7 kmh
Humidity 95% 49% 75%
Pressure 30.01 in1016.3 mb 29.88 in1011.9 mb -
Precipitation 0.00 in0.0 mm - -
Hour Temp Dew Point Humidity Winds Wind Gusts Pressure Precip Precip Rate Daily Precip Total
12:08 AM 37.8°F3.2°C 35.4°F1.9°C 91% Calm Calm -- 29.93 in1013.5 mb 0.00 in0.0 mm 0.00 in0.0 mm 0.00 in0.0 mm
12:18 AM 36.9°F2.7°C 34.2°F1.2°C 90% Calm Calm -- 29.93 in1013.5 mb 0.00 in0.0 mm 0.00 in0.0 mm 0.00 in0.0 mm
12:28 AM 36.3°F2.4°C 33.6°F0.9°C 90% Calm Calm -- 29.93 in1013.5 mb 0.00 in0.0 mm 0.00 in0.0 mm 0.00 in0.0 mm
12:38 AM 36.0°F2.2°C 33.6°F0.9°C 91% Calm Calm -- 29.93 in1013.5 mb 0.00 in0.0 mm 0.00 in0.0 mm 0.00 in0.0 mm
12:49 AM 35.4°F1.9°C 33.1°F0.6°C 91% Calm Calm -- 29.93 in1013.5 mb 0.00 in0.0 mm 0.00 in0.0 mm 0.00 in0.0 mm
12:59 AM 35.1°F1.7°C 32.7°F0.4°C 91% Calm Calm -- 29.92 in1013.2 mb 0.00 in0.0 mm 0.00 in0.0 mm 0.00 in0.0 mm
01:09 AM 34.9°F1.6°C 32.5°F0.3°C 91% Calm Calm -- 29.92 in1013.2 mb 0.00 in0.0 mm 0.00 in0.0 mm 0.00 in0.0 mm
01:19 AM 34.5°F1.4°C 32.2°F0.1°C 91% Calm Calm -- 29.92 in1013.2 mb 0.00 in0.0 mm 0.00 in0.0 mm 0.00 in0.0 mm
01:29 AM 34.2°F1.2°C 32.0°F0.0°C 92% Calm Calm -- 29.92 in1013.2 mb 0.00 in0.0 mm 0.00 in0.0 mm 0.00 in0.0 mm
01:39 AM 33.8°F1.0°C 31.6°F-0.2°C 92% Calm Calm -- 29.91 in1012.9 mb 0.00 in0.0 mm 0.00 in0.0 mm 0.00 in0.0 mm
01:49 AM 33.6°F0.9°C 31.5°F-0.3°C 92% Calm Calm -- 29.91 in1012.9 mb 0.00 in0.0 mm 0.00 in0.0 mm 0.00 in0.0 mm
01:59 AM 33.1°F0.6°C 31.1°F-0.5°C 92% Calm Calm -- 29.91 in1012.9 mb 0.00 in0.0 mm 0.00 in0.0 mm 0.00 in0.0 mm
02:10 AM 32.7°F0.4°C 30.7°F-0.7°C 92% Calm Calm -- 29.91 in1012.9 mb 0.00 in0.0 mm 0.00 in0.0 mm 0.00 in0.0 mm
02:20 AM 32.7°F0.4°C 30.7°F-0.7°C 92% Calm Calm -- 29.91 in1012.9 mb 0.00 in0.0 mm 0.00 in0.0 mm 0.00 in0.0 mm
02:30 AM 32.5°F0.3°C 30.6°F-0.8°C 92% Calm Calm -- 29.91 in1012.9 mb 0.00 in0.0 mm 0.00 in0.0 mm 0.00 in0.0 mm
02:40 AM 32.4°F0.2°C 30.6°F-0.8°C 93% Calm Calm -- 29.91 in1012.9 mb 0.00 in0.0 mm 0.00 in0.0 mm 0.00 in0.0 mm
02:50 AM 32.2°F0.1°C 30.4°F-0.9°C 93% Calm Calm -- 29.91 in1012.9 mb 0.00 in0.0 mm 0.00 in0.0 mm 0.00 in0.0 mm
03:00 AM 32.2°F0.1°C 30.4°F-0.9°C 93% Calm Calm -- 29.91 in1012.9 mb 0.00 in0.0 mm 0.00 in0.0 mm 0.00 in0.0 mm
03:10 AM 31.8°F-0.1°C 30.0°F-1.1°C 93% Calm Calm -- 29.91 in1012.9 mb 0.00 in0.0 mm 0.00 in0.0 mm 0.00 in0.0 mm
03:21 AM 31.6°F-0.2°C 29.8°F-1.2°C 93% Calm Calm -- 29.91 in1012.9 mb 0.00 in0.0 mm 0.00 in0.0 mm 0.00 in0.0 mm
03:31 AM 31.5°F-0.3°C 29.7°F-1.3°C 93% Calm Calm -- 29.90 in1012.5 mb 0.00 in0.0 mm 0.00 in0.0 mm 0.00 in0.0 mm
03:41 AM 31.3°F-0.4°C 29.5°F-1.4°C 93% Calm Calm -- 29.90 in1012.5 mb 0.00 in0.0 mm 0.00 in0.0 mm 0.00 in0.0 mm
03:51 AM 31.3°F-0.4°C 29.5°F-1.4°C 93% Calm Calm -- 29.90 in1012.5 mb 0.00 in0.0 mm 0.00 in0.0 mm 0.00 in0.0 mm
04:01 AM 31.3°F-0.4°C 29.5°F-1.4°C 93% Calm Calm -- 29.90 in1012.5 mb 0.00 in0.0 mm 0.00 in0.0 mm 0.00 in0.0 mm
04:11 AM 31.1°F-0.5°C 29.3°F-1.5°C 93% Calm Calm -- 29.90 in1012.5 mb 0.00 in0.0 mm 0.00 in0.0 mm 0.00 in0.0 mm
04:21 AM 30.7°F-0.7°C 28.9°F-1.7°C 93% Calm Calm -- 29.90 in1012.5 mb 0.00 in0.0 mm 0.00 in0.0 mm 0.00 in0.0 mm
04:31 AM 30.7°F-0.7°C 28.9°F-1.7°C 93% Calm Calm -- 29.90 in1012.5 mb 0.00 in0.0 mm 0.00 in0.0 mm 0.00 in0.0 mm
04:42 AM 30.7°F-0.7°C 28.9°F-1.7°C 93% Calm Calm -- 29.90 in1012.5 mb 0.00 in0.0 mm 0.00 in0.0 mm 0.00 in0.0 mm
04:52 AM 30.7°F-0.7°C 28.9°F-1.7°C 93% Calm Calm -- 29.90 in1012.5 mb 0.00 in0.0 mm 0.00 in0.0 mm 0.00 in0.0 mm
05:02 AM 30.6°F-0.8°C 29.1°F-1.6°C 94% Calm Calm -- 29.90 in1012.5 mb 0.00 in0.0 mm 0.00 in0.0 mm 0.00 in0.0 mm
05:12 AM 30.4°F-0.9°C 28.9°F-1.7°C 94% Calm Calm -- 29.90 in1012.5 mb 0.00 in0.0 mm 0.00 in0.0 mm 0.00 in0.0 mm
05:22 AM 30.2°F-1.0°C 28.4°F-2.0°C 93% Calm Calm -- 29.90 in1012.5 mb 0.00 in0.0 mm 0.00 in0.0 mm 0.00 in0.0 mm
05:32 AM 30.2°F-1.0°C 28.8°F-1.8°C 94% Calm Calm -- 29.90 in1012.5 mb 0.00 in0.0 mm 0.00 in0.0 mm 0.00 in0.0 mm
05:42 AM 30.0°F-1.1°C 28.6°F-1.9°C 94% Calm Calm -- 29.90 in1012.5 mb 0.00 in0.0 mm 0.00 in0.0 mm 0.00 in0.0 mm
05:52 AM 30.0°F-1.1°C 28.6°F-1.9°C 94% Calm Calm -- 29.90 in1012.5 mb 0.00 in0.0 mm 0.00 in0.0 mm 0.00 in0.0 mm
06:03 AM 29.8°F-1.2°C 28.4°F-2.0°C 94% Calm Calm -- 29.90 in1012.5 mb 0.00 in0.0 mm 0.00 in0.0 mm 0.00 in0.0 mm
06:13 AM 29.7°F-1.3°C 28.2°F-2.1°C 94% Calm Calm -- 29.90 in1012.5 mb 0.00 in0.0 mm 0.00 in0.0 mm 0.00 in0.0 mm
06:23 AM 29.5°F-1.4°C 28.0°F-2.2°C 94% Calm Calm -- 29.91 in1012.9 mb 0.00 in0.0 mm 0.00 in0.0 mm 0.00 in0.0 mm
06:33 AM 29.3°F-1.5°C 27.9°F-2.3°C 94% Calm Calm -- 29.91 in1012.9 mb 0.00 in0.0 mm 0.00 in0.0 mm 0.00 in0.0 mm
06:43 AM 29.3°F-1.5°C 27.9°F-2.3°C 94% Calm Calm -- 29.91 in1012.9 mb 0.00 in0.0 mm 0.00 in0.0 mm 0.00 in0.0 mm
06:53 AM 29.1°F-1.6°C 27.7°F-2.4°C 94% Calm Calm -- 29.91 in1012.9 mb 0.00 in0.0 mm 0.00 in0.0 mm 0.00 in0.0 mm
07:04 AM 29.1°F-1.6°C 27.7°F-2.4°C 94% Calm Calm -- 29.91 in1012.9 mb 0.00 in0.0 mm 0.00 in0.0 mm 0.00 in0.0 mm
07:14 AM 29.1°F-1.6°C 27.7°F-2.4°C 94% Calm Calm -- 29.91 in1012.9 mb 0.00 in0.0 mm 0.00 in0.0 mm 0.00 in0.0 mm
07:24 AM 28.9°F-1.7°C 27.5°F-2.5°C 94% Calm Calm -- 29.92 in1013.2 mb 0.00 in0.0 mm 0.00 in0.0 mm 0.00 in0.0 mm
07:34 AM 28.9°F-1.7°C 27.5°F-2.5°C 94% Calm Calm -- 29.92 in1013.2 mb 0.00 in0.0 mm 0.00 in0.0 mm 0.00 in0.0 mm
07:44 AM 29.1°F-1.6°C 27.7°F-2.4°C 94% Calm Calm -- 29.92 in1013.2 mb 0.00 in0.0 mm 0.00 in0.0 mm 0.00 in0.0 mm
07:54 AM 29.5°F-1.4°C 28.0°F-2.2°C 94% Calm Calm -- 29.92 in1013.2 mb 0.00 in0.0 mm 0.00 in0.0 mm 0.00 in0.0 mm
08:04 AM 29.8°F-1.2°C 28.4°F-2.0°C 94% Calm Calm -- 29.92 in1013.2 mb 0.00 in0.0 mm 0.00 in0.0 mm 0.00 in0.0 mm
08:14 AM 29.8°F-1.2°C 28.4°F-2.0°C 94% Calm Calm -- 29.92 in1013.2 mb 0.00 in0.0 mm 0.00 in0.0 mm 0.00 in0.0 mm
08:24 AM 30.6°F-0.8°C 29.1°F-1.6°C 94% Calm Calm -- 29.93 in1013.5 mb 0.00 in0.0 mm 0.00 in0.0 mm 0.00 in0.0 mm
08:34 AM 30.6°F-0.8°C 29.1°F-1.6°C 94% Calm Calm -- 29.93 in1013.5 mb 0.00 in0.0 mm 0.00 in0.0 mm 0.00 in0.0 mm
08:45 AM 30.7°F-0.7°C 29.3°F-1.5°C 94% Calm Calm -- 29.93 in1013.5 mb 0.00 in0.0 mm 0.00 in0.0 mm 0.00 in0.0 mm
08:55 AM 31.3°F-0.4°C 29.8°F-1.2°C 94% Calm Calm -- 29.93 in1013.5 mb 0.00 in0.0 mm 0.00 in0.0 mm 0.00 in0.0 mm
09:05 AM 32.2°F0.1°C 30.6°F-0.8°C 94% Calm Calm -- 29.93 in1013.5 mb 0.00 in0.0 mm 0.00 in0.0 mm 0.00 in0.0 mm
09:15 AM 33.3°F0.7°C 32.0°F0.0°C 95% Calm Calm -- 29.94 in1013.9 mb 0.00 in0.0 mm 0.00 in0.0 mm 0.00 in0.0 mm
09:25 AM 34.3°F1.3°C 33.1°F0.6°C 95% Calm Calm -- 29.94 in1013.9 mb 0.00 in0.0 mm 0.00 in0.0 mm 0.00 in0.0 mm
09:35 AM 36.0°F2.2°C 34.7°F1.5°C 95% Calm Calm -- 29.94 in1013.9 mb 0.00 in0.0 mm 0.00 in0.0 mm 0.00 in0.0 mm
09:45 AM 37.0°F2.8°C 35.8°F2.1°C 95% Calm Calm 0.9 mph1.4 kmh 29.94 in1013.9 mb 0.00 in0.0 mm 0.00 in0.0 mm 0.00 in0.0 mm
09:56 AM 38.5°F3.6°C 37.2°F2.9°C 95% Calm Calm -- 29.94 in1013.9 mb 0.00 in0.0 mm 0.00 in0.0 mm 0.00 in0.0 mm
10:06 AM 40.6°F4.8°C 39.4°F4.1°C 95% Calm Calm -- 29.94 in1013.9 mb 0.00 in0.0 mm 0.00 in0.0 mm 0.00 in0.0 mm
10:16 AM 41.5°F5.3°C 39.7°F4.3°C 93% Calm Calm -- 29.94 in1013.9 mb 0.00 in0.0 mm 0.00 in0.0 mm 0.00 in0.0 mm
10:26 AM 43.3°F6.3°C 40.8°F4.9°C 91% Calm Calm 0.9 mph1.4 kmh 29.94 in1013.9 mb 0.00 in0.0 mm 0.00 in0.0 mm 0.00 in0.0 mm
10:36 AM 44.4°F6.9°C 41.2°F5.1°C 88% Calm Calm -- 29.95 in1014.2 mb 0.00 in0.0 mm 0.00 in0.0 mm 0.00 in0.0 mm
10:47 AM 45.0°F7.2°C 40.5°F4.7°C 84% Calm Calm -- 29.95 in1014.2 mb 0.00 in0.0 mm 0.00 in0.0 mm 0.00 in0.0 mm
10:57 AM 45.3°F7.4°C 40.8°F4.9°C 84% Calm Calm 2.0 mph3.2 kmh 29.95 in1014.2 mb 0.00 in0.0 mm 0.00 in0.0 mm 0.00 in0.0 mm
11:07 AM 46.6°F8.1°C 40.5°F4.7°C 79% 2.9 mph NW4.7 kmh NW 10.1 mph16.3 kmh 29.95 in1014.2 mb 0.00 in0.0 mm 0.00 in0.0 mm 0.00 in0.0 mm
11:17 AM 47.8°F8.8°C 40.3°F4.6°C 75% 4.9 mph NNW7.9 kmh NNW 10.1 mph16.3 kmh 29.95 in1014.2 mb 0.00 in0.0 mm 0.00 in0.0 mm 0.00 in0.0 mm
11:27 AM 48.9°F9.4°C 39.2°F4.0°C 69% 6.0 mph N9.7 kmh N 10.1 mph16.3 kmh 29.94 in1013.9 mb 0.00 in0.0 mm 0.00 in0.0 mm 0.00 in0.0 mm
11:37 AM 49.5°F9.7°C 39.7°F4.3°C 69% 4.9 mph NNW7.9 kmh NNW 10.1 mph16.3 kmh 29.94 in1013.9 mb 0.00 in0.0 mm 0.00 in0.0 mm 0.00 in0.0 mm
11:47 AM 49.6°F9.8°C 38.3°F3.5°C 65% 6.0 mph N9.7 kmh N 10.1 mph16.3 kmh 29.94 in1013.9 mb 0.00 in0.0 mm 0.00 in0.0 mm 0.00 in0.0 mm
11:57 AM 50.4°F10.2°C 39.4°F4.1°C 66% 2.0 mph N3.2 kmh N 8.1 mph13.0 kmh 29.93 in1013.5 mb 0.00 in0.0 mm 0.00 in0.0 mm 0.00 in0.0 mm
12:07 PM 51.1°F10.6°C 39.7°F4.3°C 65% Calm Calm 6.0 mph9.7 kmh 29.93 in1013.5 mb 0.00 in0.0 mm 0.00 in0.0 mm 0.00 in0.0 mm
12:17 PM 51.4°F10.8°C 40.5°F4.7°C 66% 4.0 mph NNE6.4 kmh NNE 10.1 mph16.3 kmh 29.93 in1013.5 mb 0.00 in0.0 mm 0.00 in0.0 mm 0.00 in0.0 mm
12:27 PM 51.6°F10.9°C 40.3°F4.6°C 65% 4.9 mph NNW7.9 kmh NNW 10.1 mph16.3 kmh 29.93 in1013.5 mb 0.00 in0.0 mm 0.00 in0.0 mm 0.00 in0.0 mm
12:37 PM 52.0°F11.1°C 39.7°F4.3°C 63% 4.0 mph NE6.4 kmh NE 8.9 mph14.3 kmh 29.92 in1013.2 mb 0.00 in0.0 mm 0.00 in0.0 mm 0.00 in0.0 mm
12:47 PM 52.2°F11.2°C 39.2°F4.0°C 61% 4.9 mph NW7.9 kmh NW 15.0 mph24.1 kmh 29.91 in1012.9 mb 0.00 in0.0 mm 0.00 in0.0 mm 0.00 in0.0 mm
12:57 PM 52.9°F11.6°C 39.0°F3.9°C 59% 6.9 mph NNW11.1 kmh NNW 13.0 mph20.9 kmh 29.91 in1012.9 mb 0.00 in0.0 mm 0.00 in0.0 mm 0.00 in0.0 mm
01:07 PM 53.2°F11.8°C 38.8°F3.8°C 58% 8.1 mph NW13.0 kmh NW 14.1 mph22.7 kmh 29.91 in1012.9 mb 0.00 in0.0 mm 0.00 in0.0 mm 0.00 in0.0 mm
01:17 PM 53.4°F11.9°C 38.1°F3.4°C 56% 8.9 mph NE14.3 kmh NE 14.1 mph22.7 kmh 29.90 in1012.5 mb 0.00 in0.0 mm 0.00 in0.0 mm 0.00 in0.0 mm
01:27 PM 53.6°F12.0°C 39.2°F4.0°C 58% 6.0 mph N9.7 kmh N 13.0 mph20.9 kmh 29.90 in1012.5 mb 0.00 in0.0 mm 0.00 in0.0 mm 0.00 in0.0 mm
01:37 PM 54.0°F12.2°C 38.1°F3.4°C 55% 8.9 mph N14.3 kmh N 15.0 mph24.1 kmh 29.90 in1012.5 mb 0.00 in0.0 mm 0.00 in0.0 mm 0.00 in0.0 mm
01:47 PM 53.8°F12.1°C 37.9°F3.3°C 55% 8.9 mph NNE14.3 kmh NNE 17.9 mph28.8 kmh 29.89 in1012.2 mb 0.00 in0.0 mm 0.00 in0.0 mm 0.00 in0.0 mm
01:57 PM 54.0°F12.2°C 38.1°F3.4°C 55% 8.1 mph NW13.0 kmh NW 15.0 mph24.1 kmh 29.89 in1012.2 mb 0.00 in0.0 mm 0.00 in0.0 mm 0.00 in0.0 mm
02:07 PM 54.5°F12.5°C 37.8°F3.2°C 53% 10.1 mph N16.3 kmh N 17.9 mph28.8 kmh 29.89 in1012.2 mb 0.00 in0.0 mm 0.00 in0.0 mm 0.00 in0.0 mm
02:17 PM 54.5°F12.5°C 38.1°F3.4°C 54% 11.0 mph N17.7 kmh N 17.0 mph27.4 kmh 29.89 in1012.2 mb 0.00 in0.0 mm 0.00 in0.0 mm 0.00 in0.0 mm
02:27 PM 54.7°F12.6°C 40.6°F4.8°C 59% 8.9 mph N14.3 kmh N 17.9 mph28.8 kmh 29.88 in1011.9 mb 0.00 in0.0 mm 0.00 in0.0 mm 0.00 in0.0 mm
02:37 PM 54.1°F12.3°C 40.6°F4.8°C 60% 12.1 mph N19.5 kmh N 21.0 mph33.8 kmh 29.88 in1011.9 mb 0.00 in0.0 mm 0.00 in0.0 mm 0.00 in0.0 mm
02:47 PM 54.1°F12.3°C 41.4°F5.2°C 62% 10.1 mph N16.3 kmh N 19.9 mph32.0 kmh 29.88 in1011.9 mb 0.00 in0.0 mm 0.00 in0.0 mm 0.00 in0.0 mm
02:57 PM 54.3°F12.4°C 40.8°F4.9°C 60% 8.1 mph NW13.0 kmh NW 16.1 mph25.9 kmh 29.89 in1012.2 mb 0.00 in0.0 mm 0.00 in0.0 mm 0.00 in0.0 mm
03:07 PM 54.7°F12.6°C 41.0°F5.0°C 60% 8.1 mph NNW13.0 kmh NNW 19.9 mph32.0 kmh 29.88 in1011.9 mb 0.00 in0.0 mm 0.00 in0.0 mm 0.00 in0.0 mm
03:17 PM 54.3°F12.4°C 40.3°F4.6°C 59% 10.1 mph NNW16.3 kmh NNW 21.0 mph33.8 kmh 29.88 in1011.9 mb 0.00 in0.0 mm 0.00 in0.0 mm 0.00 in0.0 mm
03:27 PM 54.3°F12.4°C 40.3°F4.6°C 59% 12.1 mph NW19.5 kmh NW 21.0 mph33.8 kmh 29.88 in1011.9 mb 0.00 in0.0 mm 0.00 in0.0 mm 0.00 in0.0 mm
03:37 PM 54.3°F12.4°C 40.8°F4.9°C 60% 12.1 mph NW19.5 kmh NW 19.0 mph30.6 kmh 29.88 in1011.9 mb 0.00 in0.0 mm 0.00 in0.0 mm 0.00 in0.0 mm
03:47 PM 54.5°F12.5°C 40.8°F4.9°C 60% 11.0 mph N17.7 kmh N 17.9 mph28.8 kmh 29.88 in1011.9 mb 0.00 in0.0 mm 0.00 in0.0 mm 0.00 in0.0 mm
03:57 PM 54.1°F12.3°C 41.0°F5.0°C 61% 11.0 mph WNW17.7 kmh WNW 17.0 mph27.4 kmh 29.88 in1011.9 mb 0.00 in0.0 mm 0.00 in0.0 mm 0.00 in0.0 mm
04:07 PM 54.3°F12.4°C 41.2°F5.1°C 61% 11.0 mph WNW17.7 kmh WNW 19.9 mph32.0 kmh 29.89 in1012.2 mb 0.00 in0.0 mm 0.00 in0.0 mm 0.00 in0.0 mm
04:17 PM 54.0°F12.2°C 41.2°F5.1°C 62% 11.0 mph NW17.7 kmh NW 19.0 mph30.6 kmh 29.89 in1012.2 mb 0.00 in0.0 mm 0.00 in0.0 mm 0.00 in0.0 mm
04:27 PM 54.1°F12.3°C 41.4°F5.2°C 62% 6.0 mph N9.7 kmh N 12.1 mph19.5 kmh 29.88 in1011.9 mb 0.00 in0.0 mm 0.00 in0.0 mm 0.00 in0.0 mm
04:37 PM 54.0°F12.2°C 40.5°F4.7°C 60% 8.1 mph NW13.0 kmh NW 16.1 mph25.9 kmh 29.88 in1011.9 mb 0.00 in0.0 mm 0.00 in0.0 mm 0.00 in0.0 mm
04:47 PM 53.4°F11.9°C 40.3°F4.6°C 61% 8.1 mph NW13.0 kmh NW 17.9 mph28.8 kmh 29.88 in1011.9 mb 0.00 in0.0 mm 0.00 in0.0 mm 0.00 in0.0 mm
04:57 PM 53.1°F11.7°C 40.5°F4.7°C 62% 6.9 mph NNW11.1 kmh NNW 16.1 mph25.9 kmh 29.88 in1011.9 mb 0.00 in0.0 mm 0.00 in0.0 mm 0.00 in0.0 mm
05:07 PM 52.5°F11.4°C 39.9°F4.4°C 62% 6.9 mph NW11.1 kmh NW 12.1 mph19.5 kmh 29.89 in1012.2 mb 0.00 in0.0 mm 0.00 in0.0 mm 0.00 in0.0 mm
05:17 PM 52.0°F11.1°C 39.7°F4.3°C 63% 6.9 mph N11.1 kmh N 13.0 mph20.9 kmh 29.89 in1012.2 mb 0.00 in0.0 mm 0.00 in0.0 mm 0.00 in0.0 mm
05:27 PM 51.3°F10.7°C 39.6°F4.2°C 64% 8.1 mph N13.0 kmh N 15.0 mph24.1 kmh 29.89 in1012.2 mb 0.00 in0.0 mm 0.00 in0.0 mm 0.00 in0.0 mm
05:37 PM 50.7°F10.4°C 39.0°F3.9°C 64% 6.0 mph NNW9.7 kmh NNW 14.1 mph22.7 kmh 29.89 in1012.2 mb 0.00 in0.0 mm 0.00 in0.0 mm 0.00 in0.0 mm
05:47 PM 50.4°F10.2°C 38.7°F3.7°C 64% 6.0 mph NW9.7 kmh NW 12.1 mph19.5 kmh 29.90 in1012.5 mb 0.00 in0.0 mm 0.00 in0.0 mm 0.00 in0.0 mm
05:57 PM 50.2°F10.1°C 38.5°F3.6°C 64% 6.9 mph NNW11.1 kmh NNW 13.0 mph20.9 kmh 29.90 in1012.5 mb 0.00 in0.0 mm 0.00 in0.0 mm 0.00 in0.0 mm
06:07 PM 49.6°F9.8°C 37.9°F3.3°C 64% 4.0 mph N6.4 kmh N 12.1 mph19.5 kmh 29.90 in1012.5 mb 0.00 in0.0 mm 0.00 in0.0 mm 0.00 in0.0 mm
06:18 PM 49.3°F9.6°C 37.6°F3.1°C 64% 4.9 mph NW7.9 kmh NW 11.0 mph17.7 kmh 29.91 in1012.9 mb 0.00 in0.0 mm 0.00 in0.0 mm 0.00 in0.0 mm
06:28 PM 48.9°F9.4°C 37.2°F2.9°C 64% 4.0 mph NW6.4 kmh NW 10.1 mph16.3 kmh 29.91 in1012.9 mb 0.00 in0.0 mm 0.00 in0.0 mm 0.00 in0.0 mm
06:38 PM 48.6°F9.2°C 36.9°F2.7°C 64% 2.0 mph N3.2 kmh N 8.1 mph13.0 kmh 29.91 in1012.9 mb 0.00 in0.0 mm 0.00 in0.0 mm 0.00 in0.0 mm
06:48 PM 48.0°F8.9°C 36.5°F2.5°C 64% 2.0 mph NW3.2 kmh NW 8.1 mph13.0 kmh 29.91 in1012.9 mb 0.00 in0.0 mm 0.00 in0.0 mm 0.00 in0.0 mm
06:58 PM 47.5°F8.6°C 36.0°F2.2°C 64% 0.9 mph NW1.4 kmh NW 8.9 mph14.3 kmh 29.91 in1012.9 mb 0.00 in0.0 mm 0.00 in0.0 mm 0.00 in0.0 mm
07:08 PM 47.5°F8.6°C 35.6°F2.0°C 63% 4.0 mph NW6.4 kmh NW 8.9 mph14.3 kmh 29.92 in1013.2 mb 0.00 in0.0 mm 0.00 in0.0 mm 0.00 in0.0 mm
07:18 PM 47.7°F8.7°C 35.2°F1.8°C 62% Calm Calm 0.9 mph1.4 kmh 29.93 in1013.5 mb 0.00 in0.0 mm 0.00 in0.0 mm 0.00 in0.0 mm
07:28 PM 47.5°F8.6°C 34.3°F1.3°C 60% 2.9 mph 4.7 kmh 10.1 mph16.3 kmh 29.93 in1013.5 mb 0.00 in0.0 mm 0.00 in0.0 mm 0.00 in0.0 mm
07:38 PM 47.5°F8.6°C 33.8°F1.0°C 59% 4.0 mph NW6.4 kmh NW 8.9 mph14.3 kmh 29.93 in1013.5 mb 0.00 in0.0 mm 0.00 in0.0 mm 0.00 in0.0 mm
07:48 PM 47.3°F8.5°C 33.3°F0.7°C 58% 4.9 mph NNW7.9 kmh NNW 12.1 mph19.5 kmh 29.94 in1013.9 mb 0.00 in0.0 mm 0.00 in0.0 mm 0.00 in0.0 mm
07:58 PM 47.1°F8.4°C 32.7°F0.4°C 57% 2.9 mph N4.7 kmh N 12.1 mph19.5 kmh 29.95 in1014.2 mb 0.00 in0.0 mm 0.00 in0.0 mm 0.00 in0.0 mm
08:08 PM 46.8°F8.2°C 31.8°F-0.1°C 56% 2.9 mph 4.7 kmh 11.0 mph17.7 kmh 29.95 in1014.2 mb 0.00 in0.0 mm 0.00 in0.0 mm 0.00 in0.0 mm
08:18 PM 46.8°F8.2°C 30.6°F-0.8°C 53% 6.0 mph NNW9.7 kmh NNW 15.0 mph24.1 kmh 29.96 in1014.6 mb 0.00 in0.0 mm 0.00 in0.0 mm 0.00 in0.0 mm
08:28 PM 46.8°F8.2°C 29.7°F-1.3°C 51% 6.9 mph NW11.1 kmh NW 17.0 mph27.4 kmh 29.96 in1014.6 mb 0.00 in0.0 mm 0.00 in0.0 mm 0.00 in0.0 mm
08:38 PM 46.6°F8.1°C 28.9°F-1.7°C 50% 6.9 mph N11.1 kmh N 16.1 mph25.9 kmh 29.96 in1014.6 mb 0.00 in0.0 mm 0.00 in0.0 mm 0.00 in0.0 mm
08:48 PM 46.2°F7.9°C 28.0°F-2.2°C 49% 4.9 mph NW7.9 kmh NW 11.0 mph17.7 kmh 29.96 in1014.6 mb 0.00 in0.0 mm 0.00 in0.0 mm 0.00 in0.0 mm
08:58 PM 46.2°F7.9°C 28.0°F-2.2°C 49% 6.9 mph NNW11.1 kmh NNW 16.1 mph25.9 kmh 29.97 in1014.9 mb 0.00 in0.0 mm 0.00 in0.0 mm 0.00 in0.0 mm
09:08 PM 45.9°F7.7°C 28.2°F-2.1°C 50% 4.0 mph NW6.4 kmh NW 12.1 mph19.5 kmh 29.97 in1014.9 mb 0.00 in0.0 mm 0.00 in0.0 mm 0.00 in0.0 mm
09:18 PM 45.7°F7.6°C 28.0°F-2.2°C 50% 4.9 mph NW7.9 kmh NW 14.1 mph22.7 kmh 29.97 in1014.9 mb 0.00 in0.0 mm 0.00 in0.0 mm 0.00 in0.0 mm
09:28 PM 45.3°F7.4°C 28.2°F-2.1°C 51% 2.0 mph NNW3.2 kmh NNW 12.1 mph19.5 kmh 29.97 in1014.9 mb 0.00 in0.0 mm 0.00 in0.0 mm 0.00 in0.0 mm
09:38 PM 45.1°F7.3°C 28.0°F-2.2°C 51% Calm Calm 6.9 mph11.1 kmh 29.98 in1015.2 mb 0.00 in0.0 mm 0.00 in0.0 mm 0.00 in0.0 mm
09:48 PM 44.8°F7.1°C 28.2°F-2.1°C 52% 4.9 mph NNW7.9 kmh NNW 11.0 mph17.7 kmh 29.98 in1015.2 mb 0.00 in0.0 mm 0.00 in0.0 mm 0.00 in0.0 mm
09:58 PM 44.8°F7.1°C 28.2°F-2.1°C 52% 2.9 mph N4.7 kmh N 10.1 mph16.3 kmh 29.98 in1015.2 mb 0.00 in0.0 mm 0.00 in0.0 mm 0.00 in0.0 mm
10:08 PM 44.4°F6.9°C 28.4°F-2.0°C 53% Calm Calm 8.9 mph14.3 kmh 29.98 in1015.2 mb 0.00 in0.0 mm 0.00 in0.0 mm 0.00 in0.0 mm
10:18 PM 44.2°F6.8°C 28.2°F-2.1°C 53% Calm Calm -- 29.98 in1015.2 mb 0.00 in0.0 mm 0.00 in0.0 mm 0.00 in0.0 mm
10:29 PM 43.9°F6.6°C 28.4°F-2.0°C 54% Calm Calm -- 29.98 in1015.2 mb 0.00 in0.0 mm 0.00 in0.0 mm 0.00 in0.0 mm
10:39 PM 43.7°F6.5°C 29.1°F-1.6°C 56% Calm Calm -- 29.98 in1015.2 mb 0.00 in0.0 mm 0.00 in0.0 mm 0.00 in0.0 mm
10:49 PM 43.3°F6.3°C 29.1°F-1.6°C 57% Calm Calm 0.9 mph1.4 kmh 29.98 in1015.2 mb 0.00 in0.0 mm 0.00 in0.0 mm 0.00 in0.0 mm
10:59 PM 43.3°F6.3°C 29.1°F-1.6°C 57% 2.9 mph NNW4.7 kmh NNW 10.1 mph16.3 kmh 29.99 in1015.6 mb 0.00 in0.0 mm 0.00 in0.0 mm 0.00 in0.0 mm
11:09 PM 43.0°F6.1°C 29.3°F-1.5°C 58% 0.9 mph NNW1.4 kmh NNW 4.9 mph7.9 kmh 29.99 in1015.6 mb 0.00 in0.0 mm 0.00 in0.0 mm 0.00 in0.0 mm
11:19 PM 42.6°F5.9°C 29.3°F-1.5°C 59% Calm Calm -- 30.00 in1015.9 mb 0.00 in0.0 mm 0.00 in0.0 mm 0.00 in0.0 mm
11:29 PM 42.4°F5.8°C 29.5°F-1.4°C 60% Calm Calm 4.9 mph7.9 kmh 30.00 in1015.9 mb 0.00 in0.0 mm 0.00 in0.0 mm 0.00 in0.0 mm
11:39 PM 41.7°F5.4°C 29.7°F-1.3°C 62% 0.9 mph NNW1.4 kmh NNW 6.0 mph9.7 kmh 30.00 in1015.9 mb 0.00 in0.0 mm 0.00 in0.0 mm 0.00 in0.0 mm
11:49 PM 41.2°F5.1°C 29.5°F-1.4°C 63% 2.9 mph 4.7 kmh 6.0 mph9.7 kmh 30.00 in1015.9 mb 0.00 in0.0 mm 0.00 in0.0 mm 0.00 in0.0 mm
11:59 PM 41.2°F5.1°C 29.5°F-1.4°C 63% Calm Calm 0.9 mph1.4 kmh 30.01 in1016.3 mb 0.00 in0.0 mm 0.00 in0.0 mm 0.00 in0.0 mm